createdAt,value
2023-04-10T00:00:18.932Z,25.39
2023-04-10T00:01:18.973Z,25.36
2023-04-10T00:02:19.068Z,25.42
2023-04-10T00:03:19.243Z,25.39
2023-04-10T00:04:19.358Z,25.37
2023-04-10T00:05:19.219Z,25.40
2023-04-10T00:06:19.285Z,25.37
2023-04-10T00:07:19.287Z,25.39
2023-04-10T00:08:19.333Z,25.40
2023-04-10T00:09:19.383Z,25.40
2023-04-10T00:10:19.430Z,25.36
2023-04-10T00:11:19.498Z,25.36
2023-04-10T00:12:19.571Z,25.36
2023-04-10T00:13:19.614Z,25.40
2023-04-10T00:14:19.632Z,25.36
2023-04-10T00:15:19.674Z,25.40
2023-04-10T00:16:19.743Z,25.36
2023-04-10T00:17:19.764Z,25.37
2023-04-10T00:18:19.800Z,25.36
2023-04-10T00:19:19.834Z,25.37
2023-04-10T00:20:19.883Z,25.37
2023-04-10T00:21:19.938Z,25.37
2023-04-10T00:22:19.959Z,25.37
2023-04-10T00:23:20.013Z,25.37
2023-04-10T00:24:20.036Z,25.37
2023-04-10T00:25:20.137Z,25.36
2023-04-10T00:26:20.148Z,25.36
2023-04-10T00:27:20.205Z,25.36
2023-04-10T00:28:20.232Z,25.40
2023-04-10T00:29:20.284Z,25.37
2023-04-10T00:30:20.329Z,25.34
2023-04-10T00:31:20.462Z,25.36
2023-04-10T00:32:20.539Z,25.36
2023-04-10T00:33:20.484Z,25.37
2023-04-10T00:34:20.570Z,25.34
2023-04-10T00:35:20.550Z,25.36
2023-04-10T00:36:20.693Z,25.37
2023-04-10T00:37:20.634Z,25.37
2023-04-10T00:38:20.667Z,25.37
2023-04-10T00:39:20.728Z,25.32
2023-04-10T00:40:20.748Z,25.34
2023-04-10T00:41:20.790Z,25.33
2023-04-10T00:42:20.827Z,25.34
2023-04-10T00:43:20.886Z,25.33
2023-04-10T00:44:20.925Z,25.34
2023-04-10T00:45:20.969Z,25.39
2023-04-10T00:46:21.053Z,25.36
2023-04-10T00:47:21.103Z,25.36
2023-04-10T00:48:21.107Z,25.36
2023-04-10T00:49:21.187Z,25.34
2023-04-10T00:50:21.302Z,25.34
2023-04-10T00:51:21.261Z,25.33
2023-04-10T00:52:21.322Z,25.36
2023-04-10T00:53:21.375Z,25.36
2023-04-10T00:54:21.391Z,25.36
2023-04-10T00:55:21.457Z,25.32
2023-04-10T00:56:21.499Z,25.33
2023-04-10T00:57:21.541Z,25.37
2023-04-10T00:58:21.592Z,25.34
2023-04-10T00:59:21.619Z,25.34
2023-04-10T01:00:21.666Z,25.34
2023-04-10T01:01:21.735Z,25.33
2023-04-10T01:02:21.832Z,25.34
2023-04-10T01:03:21.990Z,25.36
2023-04-10T01:04:21.997Z,25.33
2023-04-10T01:05:21.886Z,25.33
2023-04-10T01:06:21.939Z,25.36
2023-04-10T01:07:21.959Z,25.32
2023-04-10T01:08:21.999Z,25.33
2023-04-10T01:09:22.048Z,25.34
2023-04-10T01:10:22.087Z,25.33
2023-04-10T01:11:22.147Z,25.33
2023-04-10T01:12:22.197Z,25.34
2023-04-10T01:13:22.248Z,25.34
2023-04-10T01:14:22.283Z,25.33
2023-04-10T01:15:22.329Z,25.32
2023-04-10T01:16:22.414Z,25.36
2023-04-10T01:17:22.456Z,25.32
2023-04-10T01:18:22.452Z,25.33
2023-04-10T01:19:22.507Z,25.32
2023-04-10T01:20:22.542Z,25.30
2023-04-10T01:21:22.628Z,25.32
2023-04-10T01:22:22.617Z,25.32
2023-04-10T01:23:22.661Z,25.32
2023-04-10T01:24:22.711Z,25.32
2023-04-10T01:25:22.774Z,25.30
2023-04-10T01:26:22.790Z,25.32
2023-04-10T01:27:22.840Z,25.32
2023-04-10T01:28:22.860Z,25.33
2023-04-10T01:29:22.900Z,25.33
2023-04-10T01:30:22.940Z,25.30
2023-04-10T01:31:23.068Z,25.33
2023-04-10T01:32:23.057Z,25.32
2023-04-10T01:33:23.073Z,25.32
2023-04-10T01:34:23.135Z,25.33
2023-04-10T01:35:23.148Z,25.30
2023-04-10T01:36:23.131Z,25.34
2023-04-10T01:37:23.150Z,25.32
2023-04-10T01:38:23.204Z,25.32
2023-04-10T01:39:23.241Z,25.32
2023-04-10T01:40:23.253Z,25.30
2023-04-10T01:41:23.302Z,25.32
2023-04-10T01:42:23.338Z,25.32
2023-04-10T01:43:23.359Z,25.30
2023-04-10T01:44:23.403Z,25.29
2023-04-10T01:45:23.451Z,25.30
2023-04-10T01:46:23.566Z,25.33
2023-04-10T01:47:23.567Z,25.33
2023-04-10T01:48:23.573Z,25.30
2023-04-10T01:49:23.613Z,25.29
2023-04-10T01:50:23.631Z,25.30
2023-04-10T01:51:23.683Z,25.30
2023-04-10T01:52:23.751Z,25.34
2023-04-10T01:53:23.781Z,25.30
2023-04-10T01:54:23.855Z,25.30
2023-04-10T01:55:23.877Z,25.30
2023-04-10T01:56:23.935Z,25.29
2023-04-10T01:57:23.948Z,25.30
2023-04-10T01:58:23.996Z,25.30
2023-04-10T01:59:24.024Z,25.29
2023-04-10T02:00:24.093Z,25.29
2023-04-10T02:01:29.905Z,25.29
2023-04-10T02:02:25.155Z,25.29
2023-04-10T02:03:24.327Z,25.29
2023-04-10T02:04:24.129Z,25.30
2023-04-10T02:05:24.123Z,25.30
2023-04-10T02:06:24.061Z,25.28
2023-04-10T02:07:24.057Z,25.30
2023-04-10T02:08:24.055Z,25.29
2023-04-10T02:09:24.053Z,25.28
2023-04-10T02:10:24.027Z,25.29
2023-04-10T02:11:24.041Z,25.29
2023-04-10T02:12:24.052Z,25.29
2023-04-10T02:13:24.068Z,25.29
2023-04-10T02:14:24.087Z,25.32
2023-04-10T02:15:24.099Z,25.29
2023-04-10T02:16:24.135Z,25.29
2023-04-10T02:17:24.175Z,25.30
2023-04-10T02:18:24.140Z,25.30
2023-04-10T02:19:24.165Z,25.28
2023-04-10T02:20:24.172Z,25.29
2023-04-10T02:21:24.190Z,25.28
2023-04-10T02:22:24.195Z,25.30
2023-04-10T02:23:24.184Z,25.30
2023-04-10T02:24:24.203Z,25.28
2023-04-10T02:25:24.213Z,25.28
2023-04-10T02:26:24.230Z,25.26
2023-04-10T02:27:24.233Z,25.28
2023-04-10T02:28:24.267Z,25.26
2023-04-10T02:29:24.256Z,25.29
2023-04-10T02:30:24.261Z,25.30
2023-04-10T02:31:24.324Z,25.30
2023-04-10T02:32:24.300Z,25.29
2023-04-10T02:33:24.290Z,25.28
2023-04-10T02:34:24.334Z,25.29
2023-04-10T02:35:24.330Z,25.30
2023-04-10T02:36:24.381Z,25.28
2023-04-10T02:37:24.396Z,25.30
2023-04-10T02:38:24.415Z,25.28
2023-04-10T02:39:24.388Z,25.29
2023-04-10T02:40:24.409Z,25.26
2023-04-10T02:41:24.439Z,25.29
2023-04-10T02:42:24.440Z,25.29
2023-04-10T02:43:24.473Z,25.28
2023-04-10T02:44:24.516Z,25.29
2023-04-10T02:45:24.473Z,25.28
2023-04-10T02:46:24.521Z,25.28
2023-04-10T02:47:24.485Z,25.29
2023-04-10T02:48:24.484Z,25.26
2023-04-10T02:49:24.469Z,25.29
2023-04-10T02:50:24.485Z,25.28
2023-04-10T02:51:24.505Z,25.28
2023-04-10T02:52:24.500Z,25.28
2023-04-10T02:53:24.484Z,25.28
2023-04-10T02:54:24.510Z,25.26
2023-04-10T02:55:24.525Z,25.26
2023-04-10T02:56:24.532Z,25.28
2023-04-10T02:57:24.517Z,25.28
2023-04-10T02:58:24.534Z,25.29
2023-04-10T02:59:24.534Z,25.29
2023-04-10T03:00:24.531Z,25.28
2023-04-10T03:01:24.575Z,25.28
2023-04-10T03:02:24.730Z,25.29
2023-04-10T03:03:24.754Z,25.26
2023-04-10T03:04:24.633Z,25.26
2023-04-10T03:05:24.571Z,25.26
2023-04-10T03:06:24.559Z,25.28
2023-04-10T03:07:24.582Z,25.28
2023-04-10T03:08:24.564Z,25.26
2023-04-10T03:09:24.580Z,25.26
2023-04-10T03:10:24.619Z,25.28
2023-04-10T03:11:24.636Z,25.26
2023-04-10T03:12:24.626Z,25.28
2023-04-10T03:13:24.629Z,25.26
2023-04-10T03:14:24.658Z,25.26
2023-04-10T03:15:24.678Z,25.28
2023-04-10T03:16:24.748Z,25.26
2023-04-10T03:17:24.724Z,25.29
2023-04-10T03:18:24.737Z,25.26
2023-04-10T03:19:24.735Z,25.28
2023-04-10T03:20:24.737Z,25.26
2023-04-10T03:21:24.765Z,25.26
2023-04-10T03:22:24.767Z,25.28
2023-04-10T03:23:24.772Z,25.28
2023-04-10T03:24:24.756Z,25.26
2023-04-10T03:25:24.788Z,25.26
2023-04-10T03:26:24.767Z,25.25
2023-04-10T03:27:24.755Z,25.28
2023-04-10T03:28:24.769Z,25.25
2023-04-10T03:29:24.781Z,25.26
2023-04-10T03:30:24.765Z,25.23
2023-04-10T03:31:24.859Z,25.28
2023-04-10T03:32:24.782Z,25.28
2023-04-10T03:33:24.797Z,25.25
2023-04-10T03:34:24.781Z,25.28
2023-04-10T03:35:24.785Z,25.25
2023-04-10T03:36:24.801Z,25.28
2023-04-10T03:37:24.785Z,25.26
2023-04-10T03:38:24.795Z,25.26
2023-04-10T03:39:24.804Z,25.28
2023-04-10T03:40:24.761Z,25.26
2023-04-10T03:41:25.517Z,25.28
2023-04-10T03:42:24.774Z,25.26
2023-04-10T03:43:24.751Z,25.26
2023-04-10T03:44:24.768Z,25.25
2023-04-10T03:45:24.757Z,25.25
2023-04-10T03:46:24.794Z,25.25
2023-04-10T03:47:24.777Z,25.30
2023-04-10T03:48:24.750Z,25.23
2023-04-10T03:49:24.749Z,25.26
2023-04-10T03:50:24.748Z,25.26
2023-04-10T03:51:24.943Z,25.25
2023-04-10T03:52:24.758Z,25.28
2023-04-10T03:53:24.764Z,25.25
2023-04-10T03:54:24.734Z,25.28
2023-04-10T03:55:24.738Z,25.22
2023-04-10T03:56:24.727Z,25.25
2023-04-10T03:57:24.747Z,25.23
2023-04-10T03:58:24.734Z,25.25
2023-04-10T03:59:37.407Z,25.23
2023-04-10T04:00:25.734Z,25.22
2023-04-10T04:01:24.717Z,25.25
2023-04-10T04:02:24.898Z,25.26
2023-04-10T04:03:24.839Z,25.23
2023-04-10T04:04:24.867Z,25.26
2023-04-10T04:05:24.711Z,25.26
2023-04-10T04:06:24.707Z,25.23
2023-04-10T04:07:24.690Z,25.20
2023-04-10T04:08:24.685Z,25.23
2023-04-10T04:09:24.688Z,25.25
2023-04-10T04:10:24.680Z,25.25
2023-04-10T04:11:24.685Z,25.25
2023-04-10T04:12:24.662Z,25.22
2023-04-10T04:13:24.649Z,25.25
2023-04-10T04:14:24.653Z,25.25
2023-04-10T04:15:24.623Z,25.23
2023-04-10T04:16:24.687Z,25.25
2023-04-10T04:17:24.622Z,25.25
2023-04-10T04:18:24.612Z,25.23
2023-04-10T04:19:24.602Z,25.23
2023-04-10T04:20:24.605Z,25.25
2023-04-10T04:21:24.585Z,25.23
2023-04-10T04:22:24.575Z,25.28
2023-04-10T04:23:24.569Z,25.23
2023-04-10T04:24:24.567Z,25.23
2023-04-10T04:25:24.563Z,25.22
2023-04-10T04:26:24.600Z,25.23
2023-04-10T04:27:24.577Z,25.23
2023-04-10T04:28:24.588Z,25.22
2023-04-10T04:29:24.583Z,25.23
2023-04-10T04:30:24.633Z,25.26
2023-04-10T04:31:24.643Z,25.25
2023-04-10T04:32:24.626Z,25.23
2023-04-10T04:33:24.601Z,25.23
2023-04-10T04:34:24.614Z,25.22
2023-04-10T04:35:24.652Z,25.22
2023-04-10T04:36:24.642Z,25.22
2023-04-10T04:37:24.636Z,25.25
2023-04-10T04:38:24.637Z,25.25
2023-04-10T04:39:24.650Z,25.25
2023-04-10T04:40:24.650Z,25.23
2023-04-10T04:41:24.680Z,25.23
2023-04-10T04:42:24.674Z,25.23
2023-04-10T04:43:24.701Z,25.23
2023-04-10T04:44:24.661Z,25.22
2023-04-10T04:45:24.654Z,25.23
2023-04-10T04:46:24.873Z,25.25
2023-04-10T04:47:24.810Z,25.23
2023-04-10T04:48:24.687Z,25.23
2023-04-10T04:49:24.696Z,25.25
2023-04-10T04:50:24.723Z,25.23
2023-04-10T04:51:24.714Z,25.26
2023-04-10T04:52:24.741Z,25.20
2023-04-10T04:53:24.742Z,25.22
2023-04-10T04:54:24.752Z,25.23
2023-04-10T04:55:24.741Z,25.23
2023-04-10T04:56:24.760Z,25.25
2023-04-10T04:57:24.756Z,25.23
2023-04-10T04:58:24.768Z,25.23
2023-04-10T04:59:24.754Z,25.22
2023-04-10T05:00:24.767Z,25.26
2023-04-10T05:01:24.877Z,25.22
2023-04-10T05:02:24.878Z,25.26
2023-04-10T05:03:25.045Z,25.22
2023-04-10T05:04:24.996Z,25.25
2023-04-10T05:05:24.830Z,25.25
2023-04-10T05:06:24.842Z,25.25
2023-04-10T05:07:24.860Z,25.22
2023-04-10T05:08:24.867Z,25.23
2023-04-10T05:09:24.866Z,25.23
2023-04-10T05:10:24.870Z,25.22
2023-04-10T05:11:24.906Z,25.22
2023-04-10T05:12:24.896Z,25.25
2023-04-10T05:13:24.897Z,25.25
2023-04-10T05:14:24.939Z,25.23
2023-04-10T05:15:24.979Z,25.23
2023-04-10T05:16:24.967Z,25.23
2023-04-10T05:17:25.026Z,25.26
2023-04-10T05:18:25.061Z,25.22
2023-04-10T05:19:25.028Z,25.23
2023-04-10T05:20:25.032Z,25.25
2023-04-10T05:21:25.087Z,25.26
2023-04-10T05:22:25.099Z,25.25
2023-04-10T05:23:25.104Z,25.23
2023-04-10T05:24:25.111Z,25.26
2023-04-10T05:25:25.129Z,25.26
2023-04-10T05:26:25.150Z,25.23
2023-04-10T05:27:25.201Z,25.25
2023-04-10T05:28:25.195Z,25.29
2023-04-10T05:29:25.207Z,25.28
2023-04-10T05:30:25.219Z,25.25
2023-04-10T05:31:25.251Z,25.28
2023-04-10T05:32:25.300Z,25.32
2023-04-10T05:33:25.292Z,25.33
2023-04-10T05:34:25.322Z,25.33
2023-04-10T05:35:25.362Z,25.34
2023-04-10T05:36:25.400Z,25.36
2023-04-10T05:37:25.418Z,25.39
2023-04-10T05:38:25.481Z,25.39
2023-04-10T05:39:25.533Z,25.43
2023-04-10T05:40:25.561Z,25.44
2023-04-10T05:41:25.646Z,25.46
2023-04-10T05:42:25.699Z,25.47
2023-04-10T05:43:25.764Z,25.49
2023-04-10T05:44:25.842Z,25.51
2023-04-10T05:45:25.958Z,25.51
2023-04-10T05:46:25.999Z,25.53
2023-04-10T05:47:26.042Z,25.56
2023-04-10T05:48:26.166Z,25.56
2023-04-10T05:49:26.140Z,25.61
2023-04-10T05:50:26.390Z,25.60
2023-04-10T05:51:26.256Z,25.63
2023-04-10T05:52:26.321Z,25.66
2023-04-10T05:53:26.409Z,25.64
2023-04-10T05:54:26.420Z,25.66
2023-04-10T05:55:26.468Z,25.70
2023-04-10T05:56:26.512Z,25.71
2023-04-10T05:57:26.561Z,25.73
2023-04-10T05:58:26.584Z,25.76
2023-04-10T05:59:26.634Z,25.79
2023-04-10T06:00:26.659Z,25.79
2023-04-10T06:01:26.719Z,25.81
2023-04-10T06:02:26.962Z,25.81
2023-04-10T06:03:26.856Z,25.84
2023-04-10T06:04:26.895Z,25.87
2023-04-10T06:05:26.917Z,25.87
2023-04-10T06:06:26.893Z,25.87
2023-04-10T06:07:26.931Z,25.90
2023-04-10T06:08:26.930Z,25.90
2023-04-10T06:09:26.979Z,25.92
2023-04-10T06:10:27.002Z,25.92
2023-04-10T06:11:27.067Z,25.98
2023-04-10T06:12:27.072Z,26.00
2023-04-10T06:13:27.107Z,26.00
2023-04-10T06:14:27.126Z,26.00
2023-04-10T06:15:27.148Z,25.97
2023-04-10T06:16:27.246Z,26.00
2023-04-10T06:17:27.225Z,26.04
2023-04-10T06:18:27.237Z,26.02
2023-04-10T06:19:27.233Z,26.04
2023-04-10T06:20:27.275Z,26.05
2023-04-10T06:21:27.293Z,26.04
2023-04-10T06:22:27.296Z,26.08
2023-04-10T06:23:27.308Z,26.08
2023-04-10T06:24:27.346Z,26.09
2023-04-10T06:25:27.441Z,26.09
2023-04-10T06:26:27.374Z,26.08
2023-04-10T06:27:27.381Z,26.11
2023-04-10T06:28:27.380Z,26.07
2023-04-10T06:29:27.402Z,26.05
2023-04-10T06:30:27.428Z,26.11
2023-04-10T06:31:27.492Z,26.09
2023-04-10T06:32:27.492Z,26.12
2023-04-10T06:33:27.434Z,26.08
2023-04-10T06:34:27.494Z,26.09
2023-04-10T06:35:27.437Z,26.14
2023-04-10T06:36:27.450Z,26.11
2023-04-10T06:37:27.455Z,26.12
2023-04-10T06:38:27.449Z,26.14
2023-04-10T06:39:27.672Z,26.12
2023-04-10T06:40:27.517Z,26.18
2023-04-10T06:41:27.487Z,26.20
2023-04-10T06:42:27.444Z,26.21
2023-04-10T06:43:27.451Z,26.21
2023-04-10T06:44:27.448Z,26.24
2023-04-10T06:45:27.436Z,26.25
2023-04-10T06:46:27.468Z,26.27
2023-04-10T06:47:27.483Z,26.30
2023-04-10T06:48:27.429Z,26.28
2023-04-10T06:49:27.431Z,26.34
2023-04-10T06:50:27.484Z,26.31
2023-04-10T06:51:27.748Z,26.35
2023-04-10T06:52:27.592Z,26.36
2023-04-10T06:53:27.421Z,26.36
2023-04-10T06:54:27.395Z,26.39
2023-04-10T06:55:27.419Z,26.42
2023-04-10T06:56:27.410Z,26.39
2023-04-10T06:57:27.397Z,26.42
2023-04-10T06:58:27.463Z,26.43
2023-04-10T06:59:27.400Z,26.46
2023-04-10T07:00:27.456Z,26.46
2023-04-10T07:01:27.503Z,26.46
2023-04-10T07:02:27.540Z,26.46
2023-04-10T07:03:27.557Z,26.49
2023-04-10T07:04:27.595Z,26.48
2023-04-10T07:05:27.642Z,26.48
2023-04-10T07:06:27.875Z,26.52
2023-04-10T07:07:27.721Z,26.51
2023-04-10T07:08:27.766Z,26.51
2023-04-10T07:09:27.795Z,26.53
2023-04-10T07:10:27.840Z,26.53
2023-04-10T07:11:27.898Z,26.53
2023-04-10T07:12:27.934Z,26.52
2023-04-10T07:13:27.961Z,26.53
2023-04-10T07:14:28.025Z,26.53
2023-04-10T07:15:28.033Z,26.56
2023-04-10T07:16:28.136Z,26.56
2023-04-10T07:17:28.163Z,26.56
2023-04-10T07:18:28.154Z,26.59
2023-04-10T07:19:28.167Z,26.58
2023-04-10T07:20:28.200Z,26.58
2023-04-10T07:21:28.213Z,26.56
2023-04-10T07:22:28.232Z,26.59
2023-04-10T07:23:28.273Z,26.59
2023-04-10T07:24:28.327Z,26.59
2023-04-10T07:25:28.343Z,26.60
2023-04-10T07:26:28.371Z,26.62
2023-04-10T07:27:28.360Z,26.62
2023-04-10T07:28:28.383Z,26.62
2023-04-10T07:29:28.421Z,26.62
2023-04-10T07:30:28.470Z,26.62
2023-04-10T07:31:28.521Z,26.63
2023-04-10T07:32:28.608Z,26.63
2023-04-10T07:33:28.590Z,26.64
2023-04-10T07:34:28.587Z,26.63
2023-04-10T07:35:28.608Z,26.63
2023-04-10T07:36:28.615Z,26.64
2023-04-10T07:37:28.634Z,26.62
2023-04-10T07:38:28.676Z,26.64
2023-04-10T07:39:28.688Z,26.64
2023-04-10T07:40:28.679Z,26.64
2023-04-10T07:41:28.755Z,26.63
2023-04-10T07:42:28.714Z,26.64
2023-04-10T07:43:28.741Z,26.66
2023-04-10T07:44:28.782Z,26.64
2023-04-10T07:45:28.890Z,26.66
2023-04-10T07:46:28.825Z,26.66
2023-04-10T07:47:28.866Z,26.66
2023-04-10T07:48:28.845Z,26.68
2023-04-10T07:49:28.890Z,26.66
2023-04-10T07:50:28.919Z,26.69
2023-04-10T07:51:28.932Z,26.69
2023-04-10T07:52:28.933Z,26.69
2023-04-10T07:53:28.985Z,26.71
2023-04-10T07:54:29.005Z,26.68
2023-04-10T07:55:29.040Z,26.69
2023-04-10T07:56:29.018Z,26.72
2023-04-10T07:57:29.074Z,26.71
2023-04-10T07:58:29.080Z,26.71
2023-04-10T07:59:29.091Z,26.73
2023-04-10T08:00:29.114Z,26.71
2023-04-10T08:01:29.157Z,26.71
2023-04-10T08:02:29.264Z,26.71
2023-04-10T08:03:29.289Z,26.72
2023-04-10T08:04:29.410Z,26.72
2023-04-10T08:05:29.276Z,26.72
2023-04-10T08:06:29.201Z,26.71
2023-04-10T08:07:29.237Z,26.75
2023-04-10T08:08:29.258Z,26.69
2023-04-10T08:09:29.261Z,26.72
2023-04-10T08:10:29.288Z,26.75
2023-04-10T08:11:29.321Z,26.72
2023-04-10T08:12:29.318Z,26.69
2023-04-10T08:13:29.321Z,26.72
2023-04-10T08:14:29.347Z,26.72
2023-04-10T08:15:29.368Z,26.71
2023-04-10T08:16:29.420Z,26.72
2023-04-10T08:17:29.423Z,26.72
2023-04-10T08:18:29.427Z,26.71
2023-04-10T08:19:29.470Z,26.72
2023-04-10T08:20:29.475Z,26.72
2023-04-10T08:21:29.536Z,26.72
2023-04-10T08:22:29.557Z,26.71
2023-04-10T08:23:29.588Z,26.73
2023-04-10T08:24:29.614Z,26.72
2023-04-10T08:25:29.653Z,26.71
2023-04-10T08:26:29.695Z,26.71
2023-04-10T08:27:29.708Z,26.69
2023-04-10T08:28:29.738Z,26.71
2023-04-10T08:29:29.815Z,26.71
2023-04-10T08:30:29.837Z,26.71
2023-04-10T08:31:30.075Z,26.72
2023-04-10T08:32:29.893Z,26.69
2023-04-10T08:33:29.891Z,26.71
2023-04-10T08:34:29.926Z,26.71
2023-04-10T08:35:29.994Z,26.73
2023-04-10T08:36:30.002Z,26.69
2023-04-10T08:37:30.037Z,26.71
2023-04-10T08:38:30.044Z,26.71
2023-04-10T08:39:30.072Z,26.69
2023-04-10T08:40:30.085Z,26.71
2023-04-10T08:41:30.112Z,26.69
2023-04-10T08:42:30.135Z,26.66
2023-04-10T08:43:30.128Z,26.69
2023-04-10T08:44:30.167Z,26.71
2023-04-10T08:45:30.172Z,26.68
2023-04-10T08:46:30.212Z,26.68
2023-04-10T08:47:30.261Z,26.68
2023-04-10T08:48:30.240Z,26.68
2023-04-10T08:49:30.252Z,26.66
2023-04-10T08:50:30.268Z,26.69
2023-04-10T08:51:30.269Z,26.64
2023-04-10T08:52:30.270Z,26.66
2023-04-10T08:53:30.282Z,26.68
2023-04-10T08:54:30.355Z,26.66
2023-04-10T08:55:30.297Z,26.66
2023-04-10T08:56:30.337Z,26.66
2023-04-10T08:57:30.343Z,26.66
2023-04-10T08:58:30.350Z,26.64
2023-04-10T08:59:30.349Z,26.63
2023-04-10T09:00:30.361Z,26.64
2023-04-10T09:01:30.428Z,26.66
2023-04-10T09:02:30.571Z,26.63
2023-04-10T09:03:30.591Z,26.62
2023-04-10T09:04:30.545Z,26.63
2023-04-10T09:05:30.454Z,26.62
2023-04-10T09:06:30.480Z,26.62
2023-04-10T09:07:30.476Z,26.63
2023-04-10T09:08:30.513Z,26.63
2023-04-10T09:09:30.521Z,26.60
2023-04-10T09:10:30.512Z,26.59
2023-04-10T09:11:30.526Z,26.60
2023-04-10T09:12:30.549Z,26.59
2023-04-10T09:13:30.587Z,26.60
2023-04-10T09:14:30.587Z,26.60
2023-04-10T09:15:30.626Z,26.60
2023-04-10T09:16:30.659Z,26.60
2023-04-10T09:17:30.668Z,26.58
2023-04-10T09:18:30.621Z,26.58
2023-04-10T09:19:30.695Z,26.58
2023-04-10T09:20:30.681Z,26.59
2023-04-10T09:21:30.693Z,26.58
2023-04-10T09:22:30.701Z,26.56
2023-04-10T09:23:30.739Z,26.58
2023-04-10T09:24:30.766Z,26.58
2023-04-10T09:25:30.778Z,26.58
2023-04-10T09:26:30.791Z,26.56
2023-04-10T09:27:30.847Z,26.58
2023-04-10T09:28:30.833Z,26.56
2023-04-10T09:29:30.858Z,26.56
2023-04-10T09:30:30.883Z,26.55
2023-04-10T09:31:30.971Z,26.56
2023-04-10T09:32:30.986Z,26.56
2023-04-10T09:33:30.956Z,26.55
2023-04-10T09:34:30.987Z,26.55
2023-04-10T09:35:30.990Z,26.53
2023-04-10T09:36:31.035Z,26.53
2023-04-10T09:37:31.021Z,26.53
2023-04-10T09:38:31.048Z,26.53
2023-04-10T09:39:31.057Z,26.52
2023-04-10T09:40:31.082Z,26.55
2023-04-10T09:41:31.155Z,26.52
2023-04-10T09:42:31.167Z,26.51
2023-04-10T09:43:31.175Z,26.52
2023-04-10T09:44:31.237Z,26.52
2023-04-10T09:45:31.244Z,26.51
2023-04-10T09:46:31.318Z,26.51
2023-04-10T09:47:31.370Z,26.52
2023-04-10T09:48:31.360Z,26.51
2023-04-10T09:49:31.411Z,26.49
2023-04-10T09:50:33.663Z,26.49
2023-04-10T09:51:31.466Z,26.49
2023-04-10T09:52:31.444Z,26.49
2023-04-10T09:53:31.440Z,26.48
2023-04-10T09:54:31.413Z,26.46
2023-04-10T09:55:31.396Z,26.51
2023-04-10T09:56:31.418Z,26.46
2023-04-10T09:57:31.379Z,26.46
2023-04-10T09:58:31.387Z,26.48
2023-04-10T09:59:31.389Z,26.46
2023-04-10T10:00:31.384Z,26.46
2023-04-10T10:01:31.396Z,26.43
2023-04-10T10:02:31.560Z,26.45
2023-04-10T10:03:31.446Z,26.46
2023-04-10T10:04:31.384Z,26.43
2023-04-10T10:05:31.364Z,26.45
2023-04-10T10:06:31.324Z,26.45
2023-04-10T10:07:31.314Z,26.43
2023-04-10T10:08:31.328Z,26.43
2023-04-10T10:09:31.316Z,26.43
2023-04-10T10:10:31.306Z,26.43
2023-04-10T10:11:31.316Z,26.43
2023-04-10T10:12:31.300Z,26.46
2023-04-10T10:13:31.292Z,26.45
2023-04-10T10:14:31.294Z,26.42
2023-04-10T10:15:31.348Z,26.43
2023-04-10T10:16:31.296Z,26.42
2023-04-10T10:17:31.306Z,26.43
2023-04-10T10:18:31.260Z,26.43
2023-04-10T10:19:31.273Z,26.42
2023-04-10T10:20:31.281Z,26.41
2023-04-10T10:21:31.326Z,26.43
2023-04-10T10:22:31.310Z,26.42
2023-04-10T10:23:31.338Z,26.43
2023-04-10T10:24:31.342Z,26.43
2023-04-10T10:25:31.407Z,26.42
2023-04-10T10:26:31.382Z,26.43
2023-04-10T10:27:31.407Z,26.42
2023-04-10T10:28:31.447Z,26.42
2023-04-10T10:29:31.469Z,26.41
2023-04-10T10:30:31.522Z,26.41
2023-04-10T10:31:31.522Z,26.42
2023-04-10T10:32:31.518Z,26.42
2023-04-10T10:33:31.507Z,26.41
2023-04-10T10:34:31.556Z,26.43
2023-04-10T10:35:31.584Z,26.43
2023-04-10T10:36:31.654Z,26.42
2023-04-10T10:37:31.635Z,26.38
2023-04-10T10:38:31.664Z,26.41
2023-04-10T10:39:31.695Z,26.41
2023-04-10T10:40:31.774Z,26.41
2023-04-10T10:41:31.793Z,26.39
2023-04-10T10:42:31.767Z,26.43
2023-04-10T10:43:31.804Z,26.39
2023-04-10T10:44:31.834Z,26.41
2023-04-10T10:45:31.902Z,26.41
2023-04-10T10:46:31.859Z,26.38
2023-04-10T10:47:31.909Z,26.39
2023-04-10T10:48:31.925Z,26.41
2023-04-10T10:49:31.959Z,26.39
2023-04-10T10:50:31.972Z,26.38
2023-04-10T10:51:32.016Z,26.39
2023-04-10T10:52:32.047Z,26.41
2023-04-10T10:53:32.074Z,26.39
2023-04-10T10:54:32.105Z,26.39
2023-04-10T10:55:32.127Z,26.39
2023-04-10T10:56:32.145Z,26.39
2023-04-10T10:57:32.186Z,26.42
2023-04-10T10:58:32.215Z,26.39
2023-04-10T10:59:32.272Z,26.41
2023-04-10T11:00:32.274Z,26.39
2023-04-10T11:01:32.361Z,26.38
2023-04-10T11:02:32.509Z,26.38
2023-04-10T11:03:32.426Z,26.38
2023-04-10T11:04:32.351Z,26.39
2023-04-10T11:05:32.341Z,26.41
2023-04-10T11:06:32.375Z,26.38
2023-04-10T11:07:32.398Z,26.38
2023-04-10T11:08:32.400Z,26.38
2023-04-10T11:09:32.433Z,26.38
2023-04-10T11:10:34.574Z,26.39
2023-04-10T11:11:32.721Z,26.35
2023-04-10T11:12:32.736Z,26.39
2023-04-10T11:13:32.754Z,26.39
2023-04-10T11:14:32.781Z,26.36
2023-04-10T11:15:32.805Z,26.36
2023-04-10T11:16:32.890Z,26.36
2023-04-10T11:17:32.846Z,26.39
2023-04-10T11:18:32.827Z,26.38
2023-04-10T11:19:32.868Z,26.38
2023-04-10T11:20:32.882Z,26.36
2023-04-10T11:21:32.908Z,26.38
2023-04-10T11:22:32.941Z,26.36
2023-04-10T11:23:32.927Z,26.36
2023-04-10T11:24:32.950Z,26.36
2023-04-10T11:25:32.954Z,26.38
2023-04-10T11:26:32.956Z,26.38
2023-04-10T11:27:32.997Z,26.36
2023-04-10T11:28:33.114Z,26.36
2023-04-10T11:29:33.023Z,26.38
2023-04-10T11:30:33.042Z,26.35
2023-04-10T11:31:33.037Z,26.34
2023-04-10T11:32:33.024Z,26.34
2023-04-10T11:33:33.011Z,26.35
2023-04-10T11:34:33.002Z,26.35
2023-04-10T11:35:33.152Z,26.34
2023-04-10T11:36:32.980Z,26.34
2023-04-10T11:37:32.994Z,26.32
2023-04-10T11:38:32.972Z,26.34
2023-04-10T11:39:32.971Z,26.32
2023-04-10T11:40:32.963Z,26.34
2023-04-10T11:41:32.963Z,26.31
2023-04-10T11:42:32.959Z,26.32
2023-04-10T11:43:32.994Z,26.31
2023-04-10T11:44:32.956Z,26.32
2023-04-10T11:45:33.061Z,26.32
2023-04-10T11:46:33.050Z,26.32
2023-04-10T11:47:32.957Z,26.30
2023-04-10T11:48:32.940Z,26.31
2023-04-10T11:49:32.991Z,26.34
2023-04-10T11:50:32.936Z,26.31
2023-04-10T11:51:32.927Z,26.31
2023-04-10T11:52:32.923Z,26.30
2023-04-10T11:53:32.904Z,26.34
2023-04-10T11:54:32.917Z,26.31
2023-04-10T11:55:32.902Z,26.32
2023-04-10T11:56:32.882Z,26.35
2023-04-10T11:57:32.891Z,26.31
2023-04-10T11:58:32.880Z,26.31
2023-04-10T11:59:32.869Z,26.31
2023-04-10T12:00:32.877Z,26.31
2023-04-10T12:01:32.846Z,26.31
2023-04-10T12:02:32.997Z,26.31
2023-04-10T12:03:33.009Z,26.31
2023-04-10T12:04:33.078Z,26.30
2023-04-10T12:05:32.852Z,26.32
2023-04-10T12:06:32.836Z,26.32
2023-04-10T12:07:33.150Z,26.30
2023-04-10T12:08:32.830Z,26.34
2023-04-10T12:09:32.850Z,26.30
2023-04-10T12:10:32.836Z,26.32
2023-04-10T12:11:32.810Z,26.32
2023-04-10T12:12:32.829Z,26.32
2023-04-10T12:13:32.829Z,26.34
2023-04-10T12:14:32.838Z,26.28
2023-04-10T12:15:32.810Z,26.32
2023-04-10T12:16:32.813Z,26.30
2023-04-10T12:17:32.832Z,26.31
2023-04-10T12:18:32.796Z,26.31
2023-04-10T12:19:32.807Z,26.31
2023-04-10T12:20:32.809Z,26.32
2023-04-10T12:21:32.791Z,26.30
2023-04-10T12:22:32.794Z,26.31
2023-04-10T12:23:32.782Z,26.31
2023-04-10T12:24:32.783Z,26.32
2023-04-10T12:25:32.820Z,26.28
2023-04-10T12:26:32.785Z,26.30
2023-04-10T12:27:32.805Z,26.30
2023-04-10T12:28:32.787Z,26.28
2023-04-10T12:29:32.803Z,26.30
2023-04-10T12:30:32.797Z,26.28
2023-04-10T12:31:32.857Z,26.30
2023-04-10T12:32:32.829Z,26.30
2023-04-10T12:33:32.773Z,26.28
2023-04-10T12:34:32.781Z,26.30
2023-04-10T12:35:32.818Z,26.28
2023-04-10T12:36:32.782Z,26.28
2023-04-10T12:37:32.818Z,26.28
2023-04-10T12:38:32.763Z,26.27
2023-04-10T12:39:32.783Z,26.25
2023-04-10T12:40:32.782Z,26.27
2023-04-10T12:41:32.773Z,26.27
2023-04-10T12:42:32.783Z,26.25
2023-04-10T12:43:32.819Z,26.25
2023-04-10T12:44:32.792Z,26.28
2023-04-10T12:45:32.787Z,26.25
2023-04-10T12:46:32.856Z,26.27
2023-04-10T12:47:32.788Z,26.28
2023-04-10T12:48:32.782Z,26.27
2023-04-10T12:49:32.794Z,26.27
2023-04-10T12:50:32.799Z,26.27
2023-04-10T12:51:32.792Z,26.27
2023-04-10T12:52:32.793Z,26.27